createdAt,value
2022-10-20T00:01:29.537Z,6.81
2022-10-20T00:06:56.312Z,6.02
2022-10-20T00:12:22.867Z,5.99
2022-10-20T00:17:47.764Z,6.44
2022-10-20T00:23:15.115Z,7.00
2022-10-20T00:28:42.445Z,6.19
2022-10-20T00:34:10.698Z,6.72
2022-10-20T00:39:38.426Z,6.91
2022-10-20T00:45:04.645Z,6.37
2022-10-20T00:50:33.017Z,6.13
2022-10-20T00:55:55.260Z,6.75
2022-10-20T01:01:21.033Z,6.07
2022-10-20T01:06:45.423Z,6.49
2022-10-20T01:12:09.815Z,6.33
2022-10-20T01:17:41.802Z,6.66
2022-10-20T01:23:04.667Z,6.32
2022-10-20T01:28:52.311Z,6.33
2022-10-20T01:34:19.392Z,6.52
2022-10-20T01:39:45.276Z,6.08
2022-10-20T01:45:10.202Z,7.19
2022-10-20T01:50:34.837Z,6.80
2022-10-20T01:56:00.000Z,6.66
2022-10-20T02:01:29.735Z,6.71
2022-10-20T02:07:01.420Z,8.04
2022-10-20T02:12:24.252Z,6.78
2022-10-20T02:17:45.830Z,6.84
2022-10-20T02:23:12.681Z,6.94
2022-10-20T02:28:35.927Z,6.71
2022-10-20T02:34:03.145Z,7.93
2022-10-20T02:39:26.499Z,8.07
2022-10-20T02:44:51.668Z,7.18
2022-10-20T02:50:18.149Z,7.25
2022-10-20T02:55:46.974Z,6.31
2022-10-20T03:01:10.518Z,5.72
2022-10-20T03:06:31.428Z,6.69
2022-10-20T03:11:52.842Z,6.37
2022-10-20T03:17:14.185Z,5.91
2022-10-20T03:22:37.456Z,5.97
2022-10-20T03:28:03.910Z,5.74
2022-10-20T03:33:28.125Z,5.67
2022-10-20T03:38:51.946Z,5.75
2022-10-20T03:44:20.782Z,5.65
2022-10-20T03:49:41.327Z,6.20
2022-10-20T03:55:08.183Z,5.84
2022-10-20T04:00:32.123Z,6.02
2022-10-20T04:05:58.409Z,5.71
2022-10-20T04:11:25.039Z,5.57
2022-10-20T04:16:50.749Z,5.72
2022-10-20T04:22:14.869Z,5.86
2022-10-20T04:27:41.402Z,5.94
2022-10-20T04:33:06.011Z,5.60
2022-10-20T04:38:34.238Z,5.67
2022-10-20T04:44:01.350Z,5.71
2022-10-20T04:49:27.479Z,5.77
2022-10-20T04:54:55.466Z,5.35
2022-10-20T05:00:20.083Z,6.37
2022-10-20T05:05:43.935Z,5.93
2022-10-20T05:11:10.771Z,6.30
2022-10-20T05:16:32.730Z,5.70
2022-10-20T05:21:59.539Z,5.29
2022-10-20T05:27:22.589Z,5.62
2022-10-20T05:32:49.237Z,5.82
2022-10-20T05:38:12.987Z,5.28
2022-10-20T05:43:39.372Z,5.45
2022-10-20T05:49:04.454Z,6.13
2022-10-20T05:54:31.834Z,5.96
2022-10-20T05:59:56.671Z,6.71
2022-10-20T06:05:21.293Z,7.42
2022-10-20T06:10:42.932Z,7.18
2022-10-20T06:16:09.840Z,6.90
2022-10-20T06:21:37.088Z,6.46
2022-10-20T06:27:02.036Z,6.34
2022-10-20T06:32:23.368Z,5.57
2022-10-20T06:37:49.477Z,6.80
2022-10-20T06:43:15.228Z,7.76
2022-10-20T06:48:41.918Z,7.23
2022-10-20T06:54:07.836Z,6.75
2022-10-20T06:59:31.857Z,7.04
2022-10-20T07:04:58.490Z,6.81
2022-10-20T07:10:26.082Z,6.60
2022-10-20T07:15:53.191Z,6.48
2022-10-20T07:21:16.015Z,6.02
2022-10-20T07:26:41.787Z,6.35
2022-10-20T07:32:03.056Z,6.41
2022-10-20T07:37:24.399Z,6.45
2022-10-20T07:42:49.993Z,6.18
2022-10-20T07:48:17.629Z,5.85
2022-10-20T07:53:42.862Z,5.80
2022-10-20T07:59:04.919Z,5.81
2022-10-20T08:04:32.084Z,5.69
2022-10-20T08:09:59.859Z,5.51
2022-10-20T08:20:56.538Z,5.01
2022-10-20T08:26:30.354Z,5.12
2022-10-20T08:31:51.882Z,4.98
2022-10-20T08:42:42.576Z,4.66
2022-10-20T08:48:12.727Z,5.04
2022-10-20T08:53:37.322Z,4.77
2022-10-20T08:59:02.101Z,4.40
2022-10-20T09:10:05.150Z,4.27
2022-10-20T09:15:35.418Z,4.45
2022-10-20T09:21:01.512Z,4.06
2022-10-20T09:26:39.149Z,4.24
2022-10-20T09:31:51.854Z,3.68
2022-10-20T09:37:20.765Z,3.65
2022-10-20T09:42:43.007Z,4.35
2022-10-20T09:48:10.411Z,4.36
2022-10-20T09:53:40.293Z,4.47
2022-10-20T09:59:06.175Z,4.89
2022-10-20T10:04:33.729Z,4.78
2022-10-20T10:10:02.672Z,5.38
2022-10-20T10:15:25.180Z,4.72
2022-10-20T10:20:47.118Z,4.41
2022-10-20T10:26:15.292Z,4.34
2022-10-20T10:32:03.823Z,4.47
2022-10-20T10:37:33.836Z,4.50
2022-10-20T10:42:52.690Z,4.47
2022-10-20T10:48:33.750Z,4.86
2022-10-20T10:54:23.263Z,4.37
2022-10-20T10:59:52.488Z,3.98
2022-10-20T11:11:03.569Z,4.76
2022-10-20T11:16:28.214Z,4.35
2022-10-20T11:21:55.656Z,4.35
2022-10-20T11:27:30.166Z,4.45
2022-10-20T11:32:58.119Z,4.70
2022-10-20T11:38:22.268Z,4.37
2022-10-20T11:43:46.656Z,4.43
2022-10-20T11:49:09.372Z,4.29
2022-10-20T11:54:31.172Z,4.52
2022-10-20T12:00:25.812Z,4.12
2022-10-20T12:05:53.540Z,4.12
2022-10-20T12:11:31.293Z,4.44
2022-10-20T12:17:00.045Z,3.89
2022-10-20T12:22:36.095Z,4.11
2022-10-20T12:27:58.178Z,4.30
2022-10-20T12:33:57.038Z,4.01
2022-10-20T12:39:24.381Z,4.38
2022-10-20T12:44:52.284Z,4.57
2022-10-20T12:50:14.269Z,4.36
2022-10-20T12:55:40.949Z,4.69
2022-10-20T13:00:58.764Z,4.65
2022-10-20T13:06:26.738Z,5.10
2022-10-20T13:11:57.012Z,5.01
2022-10-20T13:17:19.034Z,4.93
2022-10-20T13:22:45.800Z,5.17
2022-10-20T13:28:08.796Z,6.17
2022-10-20T13:33:51.119Z,6.82
2022-10-20T13:38:56.433Z,5.49
2022-10-20T13:44:20.526Z,6.27
2022-10-20T13:49:52.527Z,5.98
2022-10-20T13:55:17.034Z,6.06
2022-10-20T14:00:43.186Z,6.26
2022-10-20T14:06:17.807Z,5.94
2022-10-20T14:11:54.800Z,6.08
2022-10-20T14:17:20.703Z,6.15
2022-10-20T14:22:43.250Z,5.36
2022-10-20T14:28:10.320Z,5.95
2022-10-20T14:33:34.831Z,5.49
2022-10-20T14:38:59.490Z,5.72
2022-10-20T14:44:31.543Z,5.63
2022-10-20T14:49:54.294Z,5.98
2022-10-20T14:55:17.703Z,6.06
2022-10-20T15:00:54.188Z,6.43
2022-10-20T15:06:32.527Z,6.74
2022-10-20T15:11:59.160Z,7.57
2022-10-20T15:17:24.556Z,8.47
2022-10-20T15:22:53.433Z,8.16
2022-10-20T15:28:17.460Z,7.15
2022-10-20T15:34:02.477Z,7.45
2022-10-20T15:39:25.275Z,8.15
2022-10-20T15:44:48.745Z,8.11
2022-10-20T15:50:09.970Z,8.76
2022-10-20T15:55:35.731Z,8.46
2022-10-20T16:00:58.039Z,7.59
2022-10-20T16:06:23.865Z,7.83
2022-10-20T16:11:47.738Z,7.84
2022-10-20T16:17:13.878Z,8.82
2022-10-20T16:22:36.766Z,8.90
2022-10-20T16:28:04.293Z,8.65
2022-10-20T16:33:31.520Z,8.63
2022-10-20T16:38:57.052Z,8.64
2022-10-20T16:44:25.200Z,8.57
2022-10-20T16:49:53.154Z,9.47
2022-10-20T16:55:18.066Z,9.97
2022-10-20T17:00:40.348Z,8.70
2022-10-20T17:06:05.563Z,9.02
2022-10-20T17:11:30.871Z,8.86
2022-10-20T17:16:57.376Z,8.84
2022-10-20T17:22:25.337Z,8.39
2022-10-20T17:27:54.034Z,9.82
2022-10-20T17:33:17.386Z,9.44
2022-10-20T17:38:45.915Z,9.77
2022-10-20T17:44:11.181Z,9.66
2022-10-20T17:49:36.838Z,9.61
2022-10-20T17:55:01.981Z,9.90
2022-10-20T18:00:43.889Z,9.80
2022-10-20T18:05:52.035Z,10.02
2022-10-20T18:11:18.969Z,8.93
2022-10-20T18:16:44.564Z,8.44
2022-10-20T18:22:14.373Z,7.47
2022-10-20T18:27:39.385Z,6.24
2022-10-20T18:33:01.216Z,6.13
2022-10-20T18:38:27.859Z,5.11
2022-10-20T18:43:57.997Z,5.37
2022-10-20T18:49:18.318Z,4.88
2022-10-20T18:54:45.511Z,4.91
2022-10-20T19:00:10.411Z,4.86
2022-10-20T19:05:38.823Z,4.87
2022-10-20T19:11:03.095Z,4.89
2022-10-20T19:16:25.040Z,4.81
2022-10-20T19:21:50.432Z,4.70
2022-10-20T19:27:26.858Z,4.72
2022-10-20T19:32:43.896Z,5.25
2022-10-20T19:38:07.486Z,6.34
2022-10-20T19:43:35.023Z,7.39
2022-10-20T19:49:03.150Z,8.87
2022-10-20T19:54:29.627Z,9.35
2022-10-20T19:59:51.147Z,9.21
2022-10-20T20:05:16.504Z,10.09
2022-10-20T20:10:44.679Z,10.70
2022-10-20T20:16:09.137Z,10.48
2022-10-20T20:21:34.495Z,10.89
2022-10-20T20:26:55.787Z,10.75
2022-10-20T20:32:20.318Z,10.29
2022-10-20T20:37:44.110Z,10.83
2022-10-20T20:43:07.684Z,10.75
2022-10-20T20:48:33.319Z,10.98
2022-10-20T20:53:55.046Z,10.37
2022-10-20T20:59:21.518Z,11.33
2022-10-20T21:04:46.174Z,11.27
2022-10-20T21:10:10.992Z,10.83
2022-10-20T21:15:38.651Z,10.07
2022-10-20T21:21:05.959Z,10.60
2022-10-20T21:26:31.659Z,10.54
2022-10-20T21:31:57.996Z,10.81
2022-10-20T21:37:24.620Z,10.95
2022-10-20T21:42:48.584Z,10.16
2022-10-20T21:48:13.364Z,10.17
2022-10-20T21:53:37.984Z,11.17
2022-10-20T21:59:04.702Z,11.00
2022-10-20T22:04:35.605Z,10.64
2022-10-20T22:10:00.000Z,10.32
2022-10-20T22:15:25.700Z,9.94
2022-10-20T22:20:52.585Z,10.03
2022-10-20T22:26:22.912Z,9.31
2022-10-20T22:31:51.616Z,8.43
2022-10-20T22:37:19.860Z,8.55
2022-10-20T22:42:45.630Z,8.46
2022-10-20T22:48:12.641Z,7.63
2022-10-20T22:53:37.704Z,8.04
2022-10-20T22:59:03.586Z,8.39
2022-10-20T23:04:28.088Z,7.93
2022-10-20T23:09:52.539Z,8.76
2022-10-20T23:15:19.952Z,8.33
2022-10-20T23:20:44.771Z,8.58
2022-10-20T23:26:10.549Z,8.71
2022-10-20T23:31:36.409Z,7.71
2022-10-20T23:37:04.747Z,8.43
2022-10-20T23:42:30.272Z,8.35
2022-10-20T23:47:57.630Z,8.56
2022-10-20T23:53:26.416Z,8.50
2022-10-20T23:58:48.232Z,8.02
